createdAt,value
2019-02-11T00:00:55.617Z,999.93
2019-02-11T00:01:55.593Z,999.95
2019-02-11T00:02:56.549Z,999.96
2019-02-11T00:03:59.700Z,999.99
2019-02-11T00:04:55.578Z,999.99
2019-02-11T00:05:55.564Z,999.96
2019-02-11T00:06:55.540Z,1000.05
2019-02-11T00:07:56.052Z,1000.10
2019-02-11T00:08:55.529Z,1000.12
2019-02-11T00:09:55.529Z,1000.11
2019-02-11T00:10:55.505Z,1000.13
2019-02-11T00:11:55.491Z,1000.12
2019-02-11T00:12:55.485Z,1000.19
2019-02-11T00:13:56.051Z,1000.19
2019-02-11T00:14:55.564Z,1000.28
2019-02-11T00:15:55.458Z,1000.30
2019-02-11T00:16:55.435Z,1000.39
2019-02-11T00:17:55.424Z,1000.36
2019-02-11T00:18:55.420Z,1000.43
2019-02-11T00:19:55.415Z,1000.44
2019-02-11T00:20:55.399Z,1000.46
2019-02-11T00:21:55.383Z,1000.51
2019-02-11T00:22:55.370Z,1000.57
2019-02-11T00:23:55.360Z,1000.57
2019-02-11T00:24:55.562Z,1000.63
2019-02-11T00:25:55.345Z,1000.66
2019-02-11T00:26:56.051Z,1000.62
2019-02-11T00:27:55.317Z,1000.62
2019-02-11T00:28:55.310Z,1000.65
2019-02-11T00:29:55.564Z,1000.67
2019-02-11T00:30:56.062Z,1000.71
2019-02-11T00:31:55.275Z,1000.74
2019-02-11T00:32:56.126Z,1000.76
2019-02-11T00:33:55.251Z,1000.75
2019-02-11T00:34:55.258Z,1000.78
2019-02-11T00:35:56.074Z,1000.81
2019-02-11T00:36:55.222Z,1000.86
2019-02-11T00:37:55.207Z,1000.84
2019-02-11T00:38:55.198Z,1000.82
2019-02-11T00:39:55.202Z,1000.81
2019-02-11T00:40:56.064Z,1000.90
2019-02-11T00:41:55.165Z,1000.98
2019-02-11T00:42:55.156Z,1000.90
2019-02-11T00:43:55.146Z,1001.01
2019-02-11T00:44:55.144Z,1000.99
2019-02-11T00:45:55.144Z,1001.06
2019-02-11T00:46:55.109Z,1001.03
2019-02-11T00:47:55.100Z,1001.04
2019-02-11T00:48:55.089Z,1001.04
2019-02-11T00:49:55.093Z,1001.04
2019-02-11T00:50:55.064Z,1001.10
2019-02-11T00:51:55.066Z,1001.14
2019-02-11T00:52:55.047Z,1001.19
2019-02-11T00:53:55.038Z,1001.16
2019-02-11T00:54:55.035Z,1001.23
2019-02-11T00:55:55.012Z,1001.11
2019-02-11T00:56:55.007Z,1001.30
2019-02-11T00:57:55.006Z,1001.35
2019-02-11T00:58:54.981Z,1001.37
2019-02-11T00:59:55.064Z,1001.36
2019-02-11T01:00:54.956Z,1001.45
2019-02-11T01:01:54.956Z,1001.31
2019-02-11T01:02:54.936Z,1001.47
2019-02-11T01:03:55.553Z,1001.44
2019-02-11T01:04:55.065Z,1001.43
2019-02-11T01:05:54.900Z,1001.54
2019-02-11T01:06:54.897Z,1001.53
2019-02-11T01:07:54.882Z,1001.52
2019-02-11T01:08:54.873Z,1001.57
2019-02-11T01:09:55.067Z,1001.64
2019-02-11T01:10:54.848Z,1001.66
2019-02-11T01:11:54.838Z,1001.71
2019-02-11T01:12:54.825Z,1001.76
2019-02-11T01:13:54.816Z,1001.76
2019-02-11T01:14:54.823Z,1001.75
2019-02-11T01:15:54.793Z,1001.82
2019-02-11T01:16:55.556Z,1001.81
2019-02-11T01:17:55.558Z,1001.84
2019-02-11T01:18:54.761Z,1001.87
2019-02-11T01:19:54.768Z,1001.92
2019-02-11T01:20:54.741Z,1001.89
2019-02-11T01:21:54.727Z,1001.96
2019-02-11T01:22:55.559Z,1001.96
2019-02-11T01:23:54.708Z,1001.98
2019-02-11T01:24:54.711Z,1002.00
2019-02-11T01:25:54.684Z,1002.02
2019-02-11T01:26:54.676Z,1002.03
2019-02-11T01:27:55.557Z,1002.05
2019-02-11T01:28:54.648Z,1002.12
2019-02-11T01:29:54.655Z,1002.06
2019-02-11T01:30:54.630Z,1002.11
2019-02-11T01:31:54.620Z,1002.22
2019-02-11T01:32:55.555Z,1002.19
2019-02-11T01:33:54.595Z,1002.26
2019-02-11T01:34:54.600Z,1002.27
2019-02-11T01:35:54.573Z,1002.29
2019-02-11T01:36:54.565Z,1002.30
2019-02-11T01:37:54.553Z,1002.34
2019-02-11T01:38:54.539Z,1002.33
2019-02-11T01:39:54.549Z,1002.33
2019-02-11T01:40:55.070Z,1002.30
2019-02-11T01:41:54.509Z,1002.32
2019-02-11T01:42:54.501Z,1002.40
2019-02-11T01:43:54.490Z,1002.39
2019-02-11T01:44:54.510Z,1002.37
2019-02-11T01:45:54.467Z,1002.39
2019-02-11T01:46:54.457Z,1002.43
2019-02-11T01:47:54.445Z,1002.39
2019-02-11T01:48:54.434Z,1002.40
2019-02-11T01:49:55.061Z,1002.47
2019-02-11T01:50:54.437Z,1002.44
2019-02-11T01:51:54.404Z,1002.50
2019-02-11T01:52:55.063Z,1002.50
2019-02-11T01:53:54.380Z,1002.47
2019-02-11T01:54:54.372Z,1002.46
2019-02-11T01:55:54.381Z,1002.65
2019-02-11T01:56:54.347Z,1002.66
2019-02-11T01:57:54.337Z,1002.52
2019-02-11T01:58:54.325Z,1002.60
2019-02-11T01:59:54.315Z,1002.65
2019-02-11T02:00:54.320Z,1002.65
2019-02-11T02:01:54.289Z,1002.69
2019-02-11T02:02:55.058Z,1002.65
2019-02-11T02:03:54.271Z,1002.65
2019-02-11T02:04:54.261Z,1002.71
2019-02-11T02:05:54.267Z,1002.73
2019-02-11T02:06:54.237Z,1002.74
2019-02-11T02:07:54.231Z,1002.72
2019-02-11T02:08:54.216Z,1002.63
2019-02-11T02:09:54.206Z,1002.76
2019-02-11T02:10:54.215Z,1002.75
2019-02-11T02:11:54.184Z,1002.78
2019-02-11T02:12:55.059Z,1002.76
2019-02-11T02:13:54.172Z,1002.84
2019-02-11T02:14:54.150Z,1002.81
2019-02-11T02:15:54.157Z,1002.86
2019-02-11T02:16:54.129Z,1002.77
2019-02-11T02:17:54.119Z,1002.81
2019-02-11T02:18:54.119Z,1002.77
2019-02-11T02:19:54.096Z,1002.82
2019-02-11T02:20:54.107Z,1002.86
2019-02-11T02:21:54.077Z,1002.92
2019-02-11T02:22:54.065Z,1002.93
2019-02-11T02:23:54.063Z,1002.99
2019-02-11T02:24:54.558Z,1002.98
2019-02-11T02:25:54.052Z,1002.96
2019-02-11T02:26:54.022Z,1002.99
2019-02-11T02:27:54.011Z,1002.97
2019-02-11T02:28:54.012Z,1003.03
2019-02-11T02:29:54.559Z,1003.07
2019-02-11T02:30:54.000Z,1003.09
2019-02-11T02:31:53.966Z,1003.05
2019-02-11T02:32:53.957Z,1003.08
2019-02-11T02:33:53.958Z,1003.17
2019-02-11T02:34:53.938Z,1003.20
2019-02-11T02:35:53.943Z,1003.15
2019-02-11T02:36:54.562Z,1003.22
2019-02-11T02:37:54.558Z,1003.26
2019-02-11T02:38:53.901Z,1003.27
2019-02-11T02:39:53.900Z,1003.33
2019-02-11T02:40:53.893Z,1003.36
2019-02-11T02:41:53.863Z,1003.38
2019-02-11T02:42:53.853Z,1003.42
2019-02-11T02:43:55.914Z,1003.41
2019-02-11T02:44:53.837Z,1003.42
2019-02-11T02:45:53.834Z,1003.45
2019-02-11T02:46:53.807Z,1003.35
2019-02-11T02:47:54.561Z,1003.43
2019-02-11T02:48:53.783Z,1003.40
2019-02-11T02:49:53.783Z,1003.51
2019-02-11T02:50:53.787Z,1003.53
2019-02-11T02:51:53.755Z,1003.55
2019-02-11T02:52:53.748Z,1003.55
2019-02-11T02:53:54.559Z,1003.56
2019-02-11T02:54:53.730Z,1003.61
2019-02-11T02:55:53.731Z,1003.64
2019-02-11T02:56:53.704Z,1003.63
2019-02-11T02:57:54.562Z,1003.64
2019-02-11T02:58:53.686Z,1003.63
2019-02-11T02:59:53.766Z,1003.75
2019-02-11T03:00:53.675Z,1003.73
2019-02-11T03:01:53.651Z,1003.64
2019-02-11T03:02:53.639Z,1003.75
2019-02-11T03:03:53.633Z,1003.69
2019-02-11T03:04:53.628Z,1003.80
2019-02-11T03:05:53.636Z,1003.83
2019-02-11T03:06:53.591Z,1003.85
2019-02-11T03:07:53.580Z,1003.91
2019-02-11T03:08:53.571Z,1003.86
2019-02-11T03:09:53.573Z,1003.90
2019-02-11T03:10:53.568Z,1003.95
2019-02-11T03:11:53.541Z,1003.96
2019-02-11T03:12:53.525Z,1004.00
2019-02-11T03:13:54.062Z,1003.88
2019-02-11T03:14:53.513Z,1004.03
2019-02-11T03:15:53.509Z,1004.06
2019-02-11T03:16:53.483Z,1004.08
2019-02-11T03:17:53.474Z,1004.14
2019-02-11T03:18:53.463Z,1004.04
2019-02-11T03:19:53.470Z,1004.09
2019-02-11T03:20:53.579Z,1004.11
2019-02-11T03:21:53.450Z,1004.09
2019-02-11T03:22:53.417Z,1004.17
2019-02-11T03:23:53.408Z,1004.13
2019-02-11T03:24:53.401Z,1004.15
2019-02-11T03:25:53.397Z,1004.24
2019-02-11T03:26:54.061Z,1004.24
2019-02-11T03:27:54.066Z,1004.27
2019-02-11T03:28:53.356Z,1004.36
2019-02-11T03:29:53.360Z,1004.35
2019-02-11T03:30:53.360Z,1004.31
2019-02-11T03:31:53.322Z,1004.39
2019-02-11T03:32:53.319Z,1004.42
2019-02-11T03:33:53.295Z,1004.44
2019-02-11T03:34:53.294Z,1004.38
2019-02-11T03:35:53.292Z,1004.44
2019-02-11T03:36:53.265Z,1004.43
2019-02-11T03:37:53.254Z,1004.45
2019-02-11T03:38:53.242Z,1004.45
2019-02-11T03:39:53.239Z,1004.49
2019-02-11T03:40:53.585Z,1004.55
2019-02-11T03:41:54.063Z,1004.55
2019-02-11T03:42:54.063Z,1004.60
2019-02-11T03:43:53.193Z,1004.62
2019-02-11T03:44:54.078Z,1004.60
2019-02-11T03:45:53.198Z,1004.60
2019-02-11T03:46:53.168Z,1004.65
2019-02-11T03:47:53.145Z,1004.66
2019-02-11T03:48:53.134Z,1004.70
2019-02-11T03:49:54.070Z,1004.64
2019-02-11T03:50:53.152Z,1004.75
2019-02-11T03:51:53.106Z,1004.81
2019-02-11T03:52:54.070Z,1004.76
2019-02-11T03:53:53.081Z,1004.83
2019-02-11T03:54:54.065Z,1004.86
2019-02-11T03:55:53.074Z,1004.90
2019-02-11T03:56:53.087Z,1004.91
2019-02-11T03:57:53.036Z,1004.99
2019-02-11T03:58:53.568Z,1004.98
2019-02-11T03:59:53.021Z,1005.01
2019-02-11T04:00:53.030Z,1004.89
2019-02-11T04:01:53.016Z,1005.00
2019-02-11T04:02:52.982Z,1005.05
2019-02-11T04:03:53.572Z,1005.09
2019-02-11T04:04:52.978Z,1005.11
2019-02-11T04:05:52.959Z,1005.05
2019-02-11T04:06:53.085Z,1005.14
2019-02-11T04:07:52.928Z,1005.16
2019-02-11T04:08:52.920Z,1005.18
2019-02-11T04:09:52.955Z,1005.16
2019-02-11T04:10:52.907Z,1005.20
2019-02-11T04:11:52.896Z,1005.23
2019-02-11T04:12:52.875Z,1005.18
2019-02-11T04:13:52.864Z,1005.25
2019-02-11T04:14:52.850Z,1005.25
2019-02-11T04:15:52.848Z,1005.22
2019-02-11T04:16:52.840Z,1005.31
2019-02-11T04:17:53.564Z,1005.33
2019-02-11T04:18:52.805Z,1005.32
2019-02-11T04:19:52.799Z,1005.35
2019-02-11T04:20:52.792Z,1005.32
2019-02-11T04:21:52.790Z,1005.47
2019-02-11T04:22:52.766Z,1005.49
2019-02-11T04:23:52.752Z,1005.59
2019-02-11T04:24:52.742Z,1005.60
2019-02-11T04:25:52.741Z,1005.64
2019-02-11T04:26:52.735Z,1005.60
2019-02-11T04:27:52.705Z,1005.64
2019-02-11T04:28:52.708Z,1005.73
2019-02-11T04:29:52.694Z,1005.66
2019-02-11T04:30:52.688Z,1005.65
2019-02-11T04:31:52.685Z,1005.59
2019-02-11T04:32:52.655Z,1005.51
2019-02-11T04:33:53.573Z,1005.58
2019-02-11T04:34:52.633Z,1005.60
2019-02-11T04:35:52.642Z,1005.64
2019-02-11T04:36:52.627Z,1005.60
2019-02-11T04:37:52.605Z,1005.63
2019-02-11T04:38:52.590Z,1005.69
2019-02-11T04:39:52.578Z,1005.72
2019-02-11T04:40:52.568Z,1005.77
2019-02-11T04:41:52.574Z,1005.76
2019-02-11T04:42:52.549Z,1005.85
2019-02-11T04:43:52.536Z,1005.89
2019-02-11T04:44:52.525Z,1005.93
2019-02-11T04:45:52.514Z,1006.05
2019-02-11T04:46:52.518Z,1005.87
2019-02-11T04:47:52.495Z,1006.02
2019-02-11T04:48:52.479Z,1006.05
2019-02-11T04:49:52.472Z,1006.10
2019-02-11T04:50:52.461Z,1006.00
2019-02-11T04:51:52.586Z,1006.05
2019-02-11T04:52:52.438Z,1006.10
2019-02-11T04:53:52.425Z,1006.18
2019-02-11T04:54:53.070Z,1006.17
2019-02-11T04:55:52.402Z,1006.17
2019-02-11T04:56:52.591Z,1006.22
2019-02-11T04:57:52.381Z,1006.23
2019-02-11T04:58:52.371Z,1006.35
2019-02-11T04:59:52.363Z,1006.32
2019-02-11T05:00:52.355Z,1006.35
2019-02-11T05:01:52.592Z,1006.41
2019-02-11T05:02:52.330Z,1006.38
2019-02-11T05:03:54.047Z,1006.45
2019-02-11T05:04:53.070Z,1006.43
2019-02-11T05:05:52.301Z,1006.41
2019-02-11T05:06:52.313Z,1006.43
2019-02-11T05:07:52.278Z,1006.42
2019-02-11T05:08:52.271Z,1006.45
2019-02-11T05:09:53.071Z,1006.45
2019-02-11T05:10:53.074Z,1006.42
2019-02-11T05:11:52.592Z,1006.43
2019-02-11T05:12:52.226Z,1006.36
2019-02-11T05:13:52.213Z,1006.37
2019-02-11T05:14:53.069Z,1006.33
2019-02-11T05:15:53.072Z,1006.33
2019-02-11T05:16:52.197Z,1006.32
2019-02-11T05:17:52.182Z,1006.35
2019-02-11T05:18:52.157Z,1006.36
2019-02-11T05:19:52.152Z,1006.39
2019-02-11T05:20:52.136Z,1006.41
2019-02-11T05:21:52.142Z,1006.43
2019-02-11T05:22:52.121Z,1006.43
2019-02-11T05:23:52.105Z,1006.50
2019-02-11T05:24:52.092Z,1006.53
2019-02-11T05:25:52.081Z,1006.47
2019-02-11T05:26:52.088Z,1006.54
2019-02-11T05:27:52.082Z,1006.46
2019-02-11T05:28:52.052Z,1006.52
2019-02-11T05:29:52.578Z,1006.55
2019-02-11T05:30:52.027Z,1006.59
2019-02-11T05:31:52.047Z,1006.58
2019-02-11T05:32:52.017Z,1006.59
2019-02-11T05:33:51.996Z,1006.59
2019-02-11T05:34:51.988Z,1006.62
2019-02-11T05:35:51.974Z,1006.60
2019-02-11T05:36:51.975Z,1006.63
2019-02-11T05:37:51.958Z,1006.60
2019-02-11T05:38:51.937Z,1006.65
2019-02-11T05:39:51.930Z,1006.61
2019-02-11T05:40:51.919Z,1006.61
2019-02-11T05:41:52.087Z,1006.55
2019-02-11T05:42:51.900Z,1006.61
2019-02-11T05:43:51.886Z,1006.65
2019-02-11T05:44:54.230Z,1006.67
2019-02-11T05:45:51.865Z,1006.67
2019-02-11T05:46:51.876Z,1006.73
2019-02-11T05:47:51.842Z,1006.74
2019-02-11T05:48:51.832Z,1006.77
2019-02-11T05:49:51.819Z,1006.81
2019-02-11T05:50:51.811Z,1006.77
2019-02-11T05:51:51.815Z,1006.74
2019-02-11T05:52:51.792Z,1006.78
2019-02-11T05:53:51.778Z,1006.80
2019-02-11T05:54:51.769Z,1006.88
2019-02-11T05:55:51.762Z,1006.85
2019-02-11T05:56:51.790Z,1006.89
2019-02-11T05:57:52.091Z,1006.99
2019-02-11T05:58:51.728Z,1007.03
2019-02-11T05:59:51.714Z,1007.05
2019-02-11T06:00:51.704Z,1007.03
2019-02-11T06:01:51.694Z,1007.00
2019-02-11T06:02:51.703Z,1007.12
2019-02-11T06:03:51.673Z,1007.11
2019-02-11T06:04:51.665Z,1007.14
2019-02-11T06:05:51.652Z,1007.06
2019-02-11T06:06:52.573Z,1007.20
2019-02-11T06:07:51.651Z,1007.17
2019-02-11T06:08:51.620Z,1007.31
2019-02-11T06:09:51.612Z,1007.27
2019-02-11T06:10:51.598Z,1007.27
2019-02-11T06:11:51.590Z,1007.25
2019-02-11T06:12:51.596Z,1007.37
2019-02-11T06:13:51.573Z,1007.39
2019-02-11T06:14:54.128Z,1007.44
2019-02-11T06:15:51.549Z,1007.49
2019-02-11T06:16:51.535Z,1007.56
2019-02-11T06:17:51.536Z,1007.59
2019-02-11T06:18:51.514Z,1007.60
2019-02-11T06:19:51.507Z,1007.73
2019-02-11T06:20:52.075Z,1007.68
2019-02-11T06:21:51.483Z,1007.65
2019-02-11T06:22:51.487Z,1007.76
2019-02-11T06:23:51.462Z,1007.76
2019-02-11T06:24:51.447Z,1007.80
2019-02-11T06:25:52.075Z,1007.77
2019-02-11T06:26:52.074Z,1007.82
2019-02-11T06:27:51.586Z,1007.84
2019-02-11T06:28:52.075Z,1007.81
2019-02-11T06:29:51.398Z,1007.88
2019-02-11T06:30:52.075Z,1007.98
2019-02-11T06:31:51.377Z,1007.94
2019-02-11T06:32:51.587Z,1007.97
2019-02-11T06:33:51.354Z,1008.03
2019-02-11T06:34:51.349Z,1008.05
2019-02-11T06:35:51.337Z,1008.13
2019-02-11T06:36:52.078Z,1008.13
2019-02-11T06:37:51.341Z,1008.13
2019-02-11T06:38:51.310Z,1008.21
2019-02-11T06:39:52.078Z,1008.25
2019-02-11T06:40:51.292Z,1008.33
2019-02-11T06:41:52.077Z,1008.27
2019-02-11T06:42:51.271Z,1008.32
2019-02-11T06:43:51.258Z,1008.40
2019-02-11T06:44:51.235Z,1008.30
2019-02-11T06:45:52.077Z,1008.38
2019-02-11T06:46:51.236Z,1008.48
2019-02-11T06:47:51.221Z,1008.41
2019-02-11T06:48:51.202Z,1008.42
2019-02-11T06:49:51.185Z,1008.45
2019-02-11T06:50:51.177Z,1008.48
2019-02-11T06:51:51.162Z,1008.52
2019-02-11T06:52:51.592Z,1008.51
2019-02-11T06:53:51.151Z,1008.52
2019-02-11T06:54:51.132Z,1008.50
2019-02-11T06:55:51.121Z,1008.59
2019-02-11T06:56:52.077Z,1008.66
2019-02-11T06:57:51.118Z,1008.69
2019-02-11T06:58:51.093Z,1008.69
2019-02-11T06:59:51.093Z,1008.73
2019-02-11T07:00:51.068Z,1008.80
2019-02-11T07:01:51.063Z,1008.88
2019-02-11T07:02:51.071Z,1008.86
2019-02-11T07:03:51.579Z,1008.95
2019-02-11T07:04:51.582Z,1008.82
2019-02-11T07:05:51.576Z,1008.95
2019-02-11T07:06:51.580Z,1008.93
2019-02-11T07:07:51.100Z,1008.95
2019-02-11T07:08:50.983Z,1009.00
2019-02-11T07:09:50.977Z,1008.99
2019-02-11T07:10:55.621Z,1008.93
2019-02-11T07:11:51.576Z,1008.97
2019-02-11T07:12:50.959Z,1009.02
2019-02-11T07:13:50.931Z,1009.00
2019-02-11T07:14:50.957Z,1009.09
2019-02-11T07:15:50.912Z,1009.06
2019-02-11T07:16:50.901Z,1009.10
2019-02-11T07:17:50.901Z,1009.07
2019-02-11T07:18:50.880Z,1009.15
2019-02-11T07:19:51.583Z,1009.14
2019-02-11T07:20:50.860Z,1009.21
2019-02-11T07:21:50.848Z,1009.18
2019-02-11T07:22:50.858Z,1009.28
2019-02-11T07:23:50.825Z,1009.22
2019-02-11T07:24:50.821Z,1009.35
2019-02-11T07:25:51.578Z,1009.40
2019-02-11T07:26:50.794Z,1009.34
2019-02-11T07:27:50.800Z,1009.35
2019-02-11T07:28:51.579Z,1009.35
2019-02-11T07:29:50.775Z,1009.33
2019-02-11T07:30:50.751Z,1009.38
2019-02-11T07:31:50.744Z,1009.38
2019-02-11T07:32:50.740Z,1009.39
2019-02-11T07:33:51.580Z,1009.39
2019-02-11T07:34:50.710Z,1009.38
2019-02-11T07:35:50.696Z,1009.43
2019-02-11T07:36:50.685Z,1009.45
2019-02-11T07:37:50.690Z,1009.46
2019-02-11T07:38:51.578Z,1009.45
2019-02-11T07:39:50.655Z,1009.48
2019-02-11T07:40:50.649Z,1009.51
2019-02-11T07:41:50.633Z,1009.51
2019-02-11T07:42:50.632Z,1009.54
2019-02-11T07:43:50.609Z,1009.59
2019-02-11T07:44:50.598Z,1009.58
2019-02-11T07:45:50.589Z,1009.52
2019-02-11T07:46:51.080Z,1009.56
2019-02-11T07:47:50.584Z,1009.66
2019-02-11T07:48:50.556Z,1009.62
2019-02-11T07:49:50.545Z,1009.67
2019-02-11T07:50:50.539Z,1009.61
2019-02-11T07:51:51.083Z,1009.66
2019-02-11T07:52:50.606Z,1009.71
2019-02-11T07:53:50.503Z,1009.70
2019-02-11T07:54:51.083Z,1009.71
2019-02-11T07:55:50.607Z,1009.75
2019-02-11T07:56:50.472Z,1009.72
2019-02-11T07:57:50.477Z,1009.75
2019-02-11T07:58:51.083Z,1009.80
2019-02-11T07:59:50.446Z,1009.79
2019-02-11T08:00:50.434Z,1009.79
2019-02-11T08:01:50.424Z,1009.92
2019-02-11T08:02:50.408Z,1009.88
2019-02-11T08:03:50.431Z,1009.80
2019-02-11T08:04:50.386Z,1009.91
2019-02-11T08:05:50.375Z,1009.86
2019-02-11T08:06:51.091Z,1009.92
2019-02-11T08:07:51.086Z,1009.94
2019-02-11T08:08:50.360Z,1009.93
2019-02-11T08:09:50.330Z,1009.99
2019-02-11T08:10:50.318Z,1009.97
2019-02-11T08:11:50.306Z,1010.09
2019-02-11T08:12:52.247Z,1010.08
2019-02-11T08:13:50.339Z,1010.13
2019-02-11T08:14:50.276Z,1010.19
2019-02-11T08:15:50.268Z,1010.20
2019-02-11T08:16:50.255Z,1010.21
2019-02-11T08:17:51.083Z,1010.28
2019-02-11T08:18:50.249Z,1010.26
2019-02-11T08:19:50.221Z,1010.32
2019-02-11T08:20:51.089Z,1010.32
2019-02-11T08:21:50.197Z,1010.31
2019-02-11T08:22:51.107Z,1010.37
2019-02-11T08:23:50.200Z,1010.42
2019-02-11T08:24:50.164Z,1010.43
2019-02-11T08:25:51.100Z,1010.46
2019-02-11T08:26:50.148Z,1010.41
2019-02-11T08:27:50.137Z,1010.47
2019-02-11T08:28:50.138Z,1010.45
2019-02-11T08:29:50.113Z,1010.46
2019-02-11T08:30:51.082Z,1010.51
2019-02-11T08:31:50.092Z,1010.59
2019-02-11T08:32:50.588Z,1010.55
2019-02-11T08:33:50.091Z,1010.57
2019-02-11T08:34:50.062Z,1010.61
2019-02-11T08:35:50.595Z,1010.69
2019-02-11T08:36:50.584Z,1010.62
2019-02-11T08:37:50.027Z,1010.77
2019-02-11T08:38:50.033Z,1010.72
2019-02-11T08:39:50.007Z,1010.65
2019-02-11T08:40:49.998Z,1010.58
2019-02-11T08:41:50.585Z,1010.72
2019-02-11T08:42:49.976Z,1010.81
2019-02-11T08:43:50.039Z,1010.76
2019-02-11T08:44:49.956Z,1010.85
2019-02-11T08:45:49.948Z,1010.82
2019-02-11T08:46:49.934Z,1010.87
2019-02-11T08:47:50.585Z,1010.83
2019-02-11T08:48:49.945Z,1010.86
2019-02-11T08:49:49.898Z,1010.81
2019-02-11T08:50:49.904Z,1010.95
2019-02-11T08:51:49.890Z,1010.89
2019-02-11T08:52:49.877Z,1010.88
2019-02-11T08:53:49.896Z,1010.84
2019-02-11T08:54:49.851Z,1010.91
2019-02-11T08:55:49.843Z,1010.91
2019-02-11T08:56:49.828Z,1010.88
2019-02-11T08:57:49.819Z,1010.91
2019-02-11T08:58:49.828Z,1010.92
2019-02-11T08:59:50.584Z,1010.97
2019-02-11T09:00:50.600Z,1011.02
2019-02-11T09:01:49.782Z,1011.02
2019-02-11T09:02:49.924Z,1010.99
2019-02-11T09:03:50.100Z,1011.05
2019-02-11T09:04:49.761Z,1011.08
2019-02-11T09:05:50.585Z,1011.10
2019-02-11T09:06:49.729Z,1011.10
2019-02-11T09:07:49.787Z,1011.06
2019-02-11T09:08:49.715Z,1011.18
2019-02-11T09:09:49.690Z,1011.18
2019-02-11T09:10:50.588Z,1011.18
2019-02-11T09:11:49.672Z,1011.22
2019-02-11T09:12:49.655Z,1011.24
2019-02-11T09:13:49.663Z,1011.28
2019-02-11T09:14:50.593Z,1011.20
2019-02-11T09:15:55.199Z,1011.32
2019-02-11T09:16:49.619Z,1011.31
2019-02-11T09:17:50.590Z,1011.31
2019-02-11T09:18:49.622Z,1011.37
2019-02-11T09:19:50.088Z,1011.32
2019-02-11T09:20:49.583Z,1011.37
2019-02-11T09:21:50.088Z,1011.39
2019-02-11T09:22:50.088Z,1011.46
2019-02-11T09:23:49.558Z,1011.46
2019-02-11T09:24:49.544Z,1011.51
2019-02-11T09:25:49.522Z,1011.54
2019-02-11T09:26:49.508Z,1011.56
2019-02-11T09:27:50.093Z,1011.62
2019-02-11T09:28:50.111Z,1011.61
2019-02-11T09:29:50.088Z,1011.62
2019-02-11T09:30:49.470Z,1011.69
2019-02-11T09:31:50.121Z,1011.65
2019-02-11T09:32:50.093Z,1011.64
2019-02-11T09:33:49.596Z,1011.72
2019-02-11T09:34:49.429Z,1011.66
2019-02-11T09:35:49.421Z,1011.78
2019-02-11T09:36:49.447Z,1011.73
2019-02-11T09:37:50.093Z,1011.77
2019-02-11T09:38:49.405Z,1011.78
2019-02-11T09:39:49.375Z,1011.72
2019-02-11T09:40:49.361Z,1011.80
2019-02-11T09:41:50.088Z,1011.77
2019-02-11T09:42:49.340Z,1011.79
2019-02-11T09:43:49.353Z,1011.86
2019-02-11T09:44:50.086Z,1011.76
2019-02-11T09:45:50.088Z,1011.86
2019-02-11T09:46:50.102Z,1011.87
2019-02-11T09:47:50.089Z,1011.93
2019-02-11T09:48:49.291Z,1011.86
2019-02-11T09:49:49.271Z,1011.86
2019-02-11T09:50:50.093Z,1011.98
2019-02-11T09:51:49.255Z,1011.97
2019-02-11T09:52:50.803Z,1012.06
2019-02-11T09:53:49.239Z,1012.07
2019-02-11T09:54:49.212Z,1012.05
2019-02-11T09:55:49.199Z,1011.93
2019-02-11T09:56:49.225Z,1011.95
2019-02-11T09:57:50.092Z,1012.01
2019-02-11T09:58:49.620Z,1012.08
2019-02-11T09:59:49.163Z,1012.21
2019-02-11T10:00:50.092Z,1012.16
2019-02-11T10:01:49.145Z,1012.20
2019-02-11T10:02:50.257Z,1012.15
2019-02-11T10:03:49.151Z,1012.17
2019-02-11T10:04:49.107Z,1012.17
2019-02-11T10:05:49.095Z,1012.19
2019-02-11T10:06:49.597Z,1012.18
2019-02-11T10:07:49.588Z,1012.14
2019-02-11T10:08:49.590Z,1012.25
2019-02-11T10:09:49.064Z,1012.20
2019-02-11T10:10:49.038Z,1012.23
2019-02-11T10:11:49.612Z,1012.22
2019-02-11T10:12:49.017Z,1012.28
2019-02-11T10:13:49.009Z,1012.30
2019-02-11T10:14:49.008Z,1012.34
2019-02-11T10:15:48.990Z,1012.34
2019-02-11T10:16:48.972Z,1012.31
2019-02-11T10:17:49.590Z,1012.32
2019-02-11T10:18:48.951Z,1012.31
2019-02-11T10:19:48.963Z,1012.37
2019-02-11T10:20:49.594Z,1012.38
2019-02-11T10:21:48.954Z,1012.41
2019-02-11T10:22:48.908Z,1012.41
2019-02-11T10:23:48.897Z,1012.41
2019-02-11T10:24:48.917Z,1012.37
2019-02-11T10:25:49.587Z,1012.48
2019-02-11T10:26:48.872Z,1012.51
2019-02-11T10:27:48.858Z,1012.61
2019-02-11T10:28:49.592Z,1012.57
2019-02-11T10:29:48.846Z,1012.62
2019-02-11T10:30:48.822Z,1012.56
2019-02-11T10:31:48.829Z,1012.64
2019-02-11T10:32:48.804Z,1012.65
2019-02-11T10:33:49.592Z,1012.62
2019-02-11T10:34:48.812Z,1012.61
2019-02-11T10:35:48.765Z,1012.67
2019-02-11T10:36:48.764Z,1012.72
2019-02-11T10:37:48.752Z,1012.68
2019-02-11T10:38:49.597Z,1012.69
2019-02-11T10:39:49.118Z,1012.71
2019-02-11T10:40:48.713Z,1012.74
2019-02-11T10:41:48.704Z,1012.74
2019-02-11T10:42:49.598Z,1012.77
2019-02-11T10:43:48.686Z,1012.80
2019-02-11T10:44:48.693Z,1012.77
2019-02-11T10:45:49.595Z,1012.85
2019-02-11T10:46:48.697Z,1012.84
2019-02-11T10:47:48.643Z,1012.87
2019-02-11T10:48:48.630Z,1012.76
2019-02-11T10:49:49.103Z,1012.89
2019-02-11T10:50:49.592Z,1012.97
2019-02-11T10:51:48.596Z,1012.85
2019-02-11T10:52:48.585Z,1012.85
2019-02-11T10:53:48.570Z,1012.99
2019-02-11T10:54:48.576Z,1012.85
2019-02-11T10:55:49.093Z,1012.97
2019-02-11T10:56:48.541Z,1013.03
2019-02-11T10:57:48.530Z,1012.90
2019-02-11T10:58:48.521Z,1013.00
2019-02-11T10:59:48.522Z,1012.97
2019-02-11T11:00:48.513Z,1013.01
2019-02-11T11:01:48.488Z,1013.05
2019-02-11T11:02:48.481Z,1013.16
2019-02-11T11:03:48.466Z,1013.10
2019-02-11T11:04:48.473Z,1013.17
2019-02-11T11:05:49.095Z,1013.10
2019-02-11T11:06:49.093Z,1013.24
2019-02-11T11:07:48.431Z,1013.18
2019-02-11T11:08:48.414Z,1013.23
2019-02-11T11:09:48.416Z,1013.20
2019-02-11T11:10:48.391Z,1013.32
2019-02-11T11:11:48.383Z,1013.29
2019-02-11T11:12:48.425Z,1013.33
2019-02-11T11:13:48.361Z,1013.39
2019-02-11T11:14:48.616Z,1013.26
2019-02-11T11:15:48.341Z,1013.25
2019-02-11T11:16:51.103Z,1013.36
2019-02-11T11:17:49.118Z,1013.35
2019-02-11T11:18:48.305Z,1013.46
2019-02-11T11:19:48.310Z,1013.45
2019-02-11T11:20:48.287Z,1013.52
2019-02-11T11:21:49.184Z,1013.47
2019-02-11T11:22:48.265Z,1013.46
2019-02-11T11:23:48.258Z,1013.54
2019-02-11T11:24:48.609Z,1013.49
2019-02-11T11:25:48.231Z,1013.59
2019-02-11T11:26:48.221Z,1013.63
2019-02-11T11:27:48.210Z,1013.66
2019-02-11T11:28:48.208Z,1013.65
2019-02-11T11:29:48.205Z,1013.70
2019-02-11T11:30:49.095Z,1013.73
2019-02-11T11:31:48.278Z,1013.71
2019-02-11T11:32:48.165Z,1013.67
2019-02-11T11:33:48.235Z,1013.74
2019-02-11T11:34:48.608Z,1013.82
2019-02-11T11:35:48.124Z,1013.82
2019-02-11T11:36:48.114Z,1013.88
2019-02-11T11:37:48.144Z,1013.89
2019-02-11T11:38:48.099Z,1013.92
2019-02-11T11:39:48.094Z,1013.91
2019-02-11T11:40:48.602Z,1013.96
2019-02-11T11:41:48.060Z,1013.93
2019-02-11T11:42:48.050Z,1013.99
2019-02-11T11:43:48.042Z,1013.93
2019-02-11T11:44:48.040Z,1013.99
2019-02-11T11:45:48.024Z,1014.02
2019-02-11T11:46:48.007Z,1014.11
2019-02-11T11:47:48.598Z,1014.07
2019-02-11T11:48:48.597Z,1014.03
2019-02-11T11:49:47.999Z,1014.06
2019-02-11T11:50:47.962Z,1014.01
2019-02-11T11:51:47.954Z,1014.06
2019-02-11T11:52:47.987Z,1014.09
2019-02-11T11:53:47.930Z,1014.09
2019-02-11T11:54:48.122Z,1014.13
2019-02-11T11:55:47.930Z,1014.07
2019-02-11T11:56:47.906Z,1014.10
2019-02-11T11:57:47.949Z,1014.13
2019-02-11T11:58:47.899Z,1014.19
2019-02-11T11:59:48.142Z,1014.04
2019-02-11T12:00:47.859Z,1014.17
2019-02-11T12:01:47.851Z,1014.22
2019-02-11T12:03:00.302Z,1014.19
2019-02-11T12:03:47.837Z,1014.20
2019-02-11T12:04:48.114Z,1014.18
2019-02-11T12:05:47.803Z,1014.24